Time;durP1;ratioP1;P1;durP2;ratioP2;P2;SDS_P1;SDS_P2;PMS_P1;PMS_P2;Temp;Humidity;BMP_temperature;BMP_pressure;BME280_temperature;BME280_humidity;BME280_pressure;Samples;Min_cycle;Max_cycle;Signal;HPM_P1;HPM_P2
2022/03/02 00:02:22;;;;;;;31.05;15.48;;;;;;;3.11;51.35;101626.13;6298402;22;20019;-85
2022/03/02 00:04:51;;;;;;;28.25;14.55;;;;;;;3.33;50.77;101626.56;6299322;22;20019;-85
2022/03/02 00:07:20;;;;;;;25.67;13.85;;;;;;;3.55;51.07;101619.13;6328450;22;20096;-90
2022/03/02 00:09:45;;;;;;;27.80;12.82;;;;;;;3.62;49.90;101617.84;6330190;22;20033;-88
2022/03/02 00:15:52;;;;;;;28.00;12.85;;;;;;;3.23;51.25;101629.81;6324360;22;20011;-88
2022/03/02 00:18:17;;;;;;;23.25;11.52;;;;;;;3.57;50.10;101622.53;6323874;22;20026;-88
2022/03/02 00:20:46;;;;;;;28.00;13.02;;;;;;;3.38;50.82;101626.31;6296774;22;20015;-91
2022/03/02 00:25:53;;;;;;;26.67;12.63;;;;;;;3.46;49.81;101626.69;6317061;22;20019;-86
2022/03/02 00:28:53;;;;;;;25.77;13.00;;;;;;;3.42;50.37;101628.66;6303531;22;20070;-87
2022/03/02 00:31:52;;;;;;;30.73;13.13;;;;;;;3.51;49.56;101630.72;6326593;22;20019;-89
2022/03/02 00:34:23;;;;;;;26.30;12.77;;;;;;;3.87;49.19;101621.63;6314659;22;20026;-86
2022/03/02 00:36:52;;;;;;;31.00;13.60;;;;;;;3.64;49.05;101617.75;6278306;22;20015;-87
2022/03/02 00:45:25;;;;;;;36.22;14.32;;;;;;;2.67;52.34;101614.69;6189324;23;20092;-85
2022/03/02 00:50:45;;;;;;;37.72;13.25;;;;;;;2.64;51.54;101610.47;6273016;22;20011;-85
2022/03/02 00:53:17;;;;;;;23.48;12.15;;;;;;;2.89;51.29;101610.78;6285208;22;20023;-86
2022/03/02 00:55:52;;;;;;;24.50;12.57;;;;;;;2.81;50.94;101609.53;6265901;22;20008;-85
2022/03/02 00:58:21;;;;;;;27.50;12.30;;;;;;;2.55;51.66;101618.81;6270789;22;20018;-88
2022/03/02 01:04:54;;;;;;;20.10;10.52;;;;;;;2.05;53.66;101616.31;6264854;23;20050;-86
2022/03/02 01:07:32;;;;;;;23.08;11.45;;;;;;;2.07;53.52;101619.69;6233203;23;20015;-87
2022/03/02 01:10:02;;;;;;;32.42;11.57;;;;;;;2.30;53.77;101619.31;6259314;22;20016;-88
2022/03/02 01:12:34;;;;;;;21.08;10.60;;;;;;;2.46;53.83;101612.31;6261549;22;20004;-88
2022/03/02 01:15:09;;;;;;;21.33;10.98;;;;;;;2.43;52.74;101622.09;6264846;23;20016;-86
2022/03/02 01:17:41;;;;;;;19.02;10.27;;;;;;;2.34;52.90;101618.22;6265639;23;20004;-83
2022/03/02 01:20:22;;;;;;;19.27;9.73;;;;;;;2.50;52.55;101613.84;6259656;22;20440;-86
2022/03/02 01:22:49;;;;;;;18.70;9.93;;;;;;;2.37;52.94;101612.81;6227224;23;20000;-85
2022/03/02 01:25:15;;;;;;;20.75;10.52;;;;;;;1.98;53.00;101612.34;6262950;23;20004;-86
2022/03/02 01:27:48;;;;;;;18.88;9.93;;;;;;;2.05;53.48;101611.91;6264962;23;20008;-85
2022/03/02 01:30:13;;;;;;;20.95;10.40;;;;;;;2.06;53.08;101610.13;6260130;23;20042;-87
2022/03/02 01:32:45;;;;;;;18.25;9.52;;;;;;;2.16;52.68;101605.25;6253854;22;20044;-85
2022/03/02 01:35:14;;;;;;;15.32;7.60;;;;;;;2.43;52.35;101602.00;6254636;23;20012;-88
2022/03/02 01:37:40;;;;;;;22.65;9.70;;;;;;;2.58;52.16;101595.09;6260004;22;19996;-87
2022/03/02 01:40:10;;;;;;;17.75;10.00;;;;;;;2.86;51.39;101599.63;6264201;23;20022;-85
2022/03/02 01:42:43;;;;;;;17.95;9.27;;;;;;;2.81;50.93;101597.28;6205614;23;20068;-85
2022/03/02 01:45:10;;;;;;;;;;;;;;;2.71;50.48;101587.41;6254688;22;20004;-83
2022/03/02 01:47:37;;;;;;;18.50;9.30;;;;;;;2.86;50.88;101591.75;6253236;23;19941;-84
2022/03/02 01:50:11;;;;;;;16.77;9.38;;;;;;;2.88;50.46;101584.69;6258690;23;20030;-85
2022/03/02 01:52:43;;;;;;;17.13;9.60;;;;;;;2.93;50.12;101577.41;6267332;22;20012;-85
2022/03/02 01:55:13;;;;;;;16.63;9.32;;;;;;;2.85;50.36;101572.59;6287465;22;20017;-85
2022/03/02 01:57:40;;;;;;;20.40;9.68;;;;;;;2.75;51.16;101571.44;6294416;22;20031;-86
2022/03/02 02:00:10;;;;;;;21.50;10.88;;;;;;;2.78;50.80;101580.91;6328604;22;20015;-88
2022/03/02 02:02:47;;;;;;;26.45;10.80;;;;;;;2.63;51.10;101586.97;6297196;22;20026;-90
2022/03/02 02:05:15;;;;;;;20.55;10.00;;;;;;;2.71;51.45;101577.78;6306536;22;19995;-85
2022/03/02 02:07:41;;;;;;;20.17;10.55;;;;;;;2.52;50.96;101575.34;6332669;22;20011;-85
2022/03/02 02:10:14;;;;;;;19.17;10.20;;;;;;;2.28;52.28;101581.94;6298276;22;20065;-86
2022/03/02 02:12:44;;;;;;;18.45;8.32;;;;;;;2.22;52.18;101581.41;6325393;22;20086;-82
2022/03/02 02:15:10;;;;;;;25.63;10.90;;;;;;;2.30;52.58;101574.84;6297972;22;20007;-85
2022/03/02 02:17:38;;;;;;;17.70;9.93;;;;;;;2.14;52.38;101573.13;6328519;22;20015;-85
2022/03/02 02:20:06;;;;;;;18.95;9.82;;;;;;;2.50;52.09;101560.66;6251522;22;20015;-85
2022/03/02 02:22:40;;;;;;;19.92;9.63;;;;;;;2.48;51.80;101555.53;6330524;22;20031;-86
2022/03/02 02:25:12;;;;;;;19.88;9.70;;;;;;;2.70;51.27;101557.78;6329009;22;20007;-87
2022/03/02 02:27:38;;;;;;;15.93;9.07;;;;;;;2.72;50.43;101560.31;6303064;22;20014;-86
2022/03/02 02:30:05;;;;;;;19.10;9.55;;;;;;;2.67;50.21;101552.72;6328510;22;20014;-86
2022/03/02 02:32:37;;;;;;;17.45;9.70;;;;;;;2.74;50.24;101547.97;6302157;22;20011;-84
2022/03/02 02:35:12;;;;;;;14.32;8.15;;;;;;;2.58;50.74;101541.00;6307097;22;20011;-87
2022/03/02 02:37:42;;;;;;;20.15;9.02;;;;;;;2.54;50.75;101546.47;6329926;22;20007;-86
2022/03/02 02:40:16;;;;;;;14.80;8.35;;;;;;;2.62;50.19;101543.44;6325800;22;20068;-86
2022/03/02 02:42:44;;;;;;;15.10;8.65;;;;;;;2.69;50.50;101542.13;6319111;22;20011;-87
2022/03/02 02:45:43;;;;;;;17.33;9.25;;;;;;;2.78;50.18;101536.41;6330084;22;19991;-84
2022/03/02 02:48:18;;;;;;;19.85;8.43;;;;;;;2.38;51.22;101537.81;6305318;22;20011;-83
2022/03/02 02:50:44;;;;;;;19.60;8.77;;;;;;;2.29;50.98;101526.06;6324822;22;20038;-86
2022/03/02 02:53:11;;;;;;;19.05;9.35;;;;;;;2.42;51.28;101532.28;6296426;22;20019;-87
2022/03/02 02:55:55;;;;;;;16.73;8.63;;;;;;;2.52;50.83;101528.25;6321811;22;20007;-87
2022/03/02 02:58:26;;;;;;;15.88;8.48;;;;;;;2.64;50.34;101513.63;6321844;22;20011;-88
2022/03/02 03:00:52;;;;;;;21.85;8.45;;;;;;;2.69;50.67;101524.66;6324403;22;20015;-88
2022/03/02 03:03:19;;;;;;;18.67;8.77;;;;;;;2.67;49.98;101520.47;6288001;22;20034;-85
2022/03/02 03:11:27;;;;;;;15.95;8.50;;;;;;;2.32;51.36;101504.97;6268793;22;20051;-89
2022/03/02 03:14:38;;;;;;;17.35;9.02;;;;;;;2.02;51.94;101501.44;6265579;22;20119;-89
2022/03/02 03:17:07;;;;;;;17.92;8.93;;;;;;;1.85;53.06;101498.91;6275974;22;20084;-87
2022/03/02 03:19:57;;;;;;;17.73;9.32;;;;;;;1.84;53.62;101502.44;6292844;22;20015;-88
2022/03/02 03:22:29;;;;;;;16.98;9.90;;;;;;;1.93;53.05;101501.94;6291677;22;20365;-86
2022/03/02 03:24:55;;;;;;;20.17;10.18;;;;;;;1.69;54.27;101498.03;6290644;22;20023;-86
2022/03/02 03:27:46;;;;;;;19.20;9.60;;;;;;;1.74;53.74;101502.09;6294139;22;20008;-85
2022/03/02 03:31:01;;;;;;;17.10;9.45;;;;;;;1.91;53.54;101509.88;6294303;22;20027;-88
2022/03/02 03:33:35;;;;;;;15.45;9.18;;;;;;;2.20;52.78;101499.56;6329810;22;20051;-88
2022/03/02 03:36:05;;;;;;;17.42;9.65;;;;;;;2.32;52.81;101509.38;6310924;22;20027;-85
2022/03/02 03:41:42;;;;;;;19.40;9.93;;;;;;;2.02;52.94;101496.22;6287628;22;20019;-87
2022/03/02 03:44:08;;;;;;;16.17;9.13;;;;;;;2.30;52.68;101511.22;6294268;22;20327;-85
2022/03/02 03:46:35;;;;;;;16.95;9.63;;;;;;;2.36;51.52;101506.47;6295802;22;20022;-86
2022/03/02 03:49:00;;;;;;;17.38;9.40;;;;;;;2.33;51.73;101500.56;6294911;22;20007;-88
2022/03/02 03:51:28;;;;;;;19.48;9.35;;;;;;;2.42;51.41;101500.91;6289162;22;20020;-85
2022/03/02 03:53:54;;;;;;;15.90;9.50;;;;;;;2.37;51.82;101497.72;6290030;22;20000;-83
2022/03/02 03:56:20;;;;;;;17.40;9.40;;;;;;;2.44;51.39;101488.59;6290181;22;20047;-85
2022/03/02 03:58:46;;;;;;;16.38;8.93;;;;;;;2.41;51.96;101486.16;6254198;22;20004;-83
2022/03/02 04:01:18;;;;;;;19.63;10.10;;;;;;;2.23;52.30;101474.09;6263538;22;19995;-81
2022/03/02 04:03:43;;;;;;;15.57;9.20;;;;;;;2.11;52.73;101469.56;6302288;22;20015;-82
2022/03/02 04:06:09;;;;;;;18.67;9.32;;;;;;;2.18;52.55;101460.44;6302052;22;20004;-83
2022/03/02 04:08:34;;;;;;;17.35;9.82;;;;;;;2.02;52.86;101454.41;6290440;22;20513;-90
2022/03/02 04:11:01;;;;;;;17.42;9.73;;;;;;;1.86;53.94;101443.91;6287222;22;20016;-87
2022/03/02 04:13:33;;;;;;;23.85;9.85;;;;;;;2.06;53.57;101451.50;6286992;22;19999;-88
2022/03/02 04:16:02;;;;;;;18.25;8.80;;;;;;;2.17;53.41;101450.06;6285147;22;20037;-89
2022/03/02 04:18:28;;;;;;;16.33;9.40;;;;;;;2.07;53.92;101447.13;6290566;22;20083;-85
2022/03/02 04:20:57;;;;;;;15.30;8.85;;;;;;;1.94;53.88;101453.97;6293325;22;20026;-85
2022/03/02 04:23:22;;;;;;;18.42;9.88;;;;;;;1.88;54.21;101449.06;6292747;22;20020;-85
2022/03/02 04:25:54;;;;;;;17.25;9.90;;;;;;;2.07;54.12;101445.34;6294843;22;20060;-87
2022/03/02 04:28:46;;;;;;;17.40;9.57;;;;;;;2.21;53.46;101455.03;6294193;22;20004;-86
2022/03/02 04:31:53;;;;;;;21.92;10.25;;;;;;;2.27;53.18;101456.47;6295936;22;20016;-85
2022/03/02 04:34:18;;;;;;;;;;;;;;;2.30;52.48;101458.91;6285971;22;20016;-87
2022/03/02 04:36:44;;;;;;;15.80;8.27;;;;;;;2.42;52.37;101450.38;6273437;22;19937;-87
2022/03/02 04:39:10;;;;;;;18.73;8.63;;;;;;;2.32;52.14;101457.88;6284677;22;20012;-87
2022/03/02 04:41:36;;;;;;;19.67;8.65;;;;;;;2.29;51.91;101455.44;6282979;22;20020;-88
2022/03/02 04:44:01;;;;;;;20.08;8.82;;;;;;;2.31;51.75;101456.22;6263734;22;20036;-85
2022/03/02 04:46:28;;;;;;;19.50;9.75;;;;;;;2.38;52.32;101452.31;6297582;22;20012;-86
2022/03/02 04:48:56;;;;;;;14.38;8.80;;;;;;;2.37;51.88;101453.25;6296338;22;20082;-83
2022/03/02 04:51:28;;;;;;;17.90;8.80;;;;;;;2.28;51.95;101456.41;6293663;22;20038;-82
2022/03/02 04:53:54;;;;;;;12.13;6.70;;;;;;;2.51;51.75;101450.69;6295608;22;20086;-86
2022/03/02 04:56:22;;;;;;;28.27;9.90;;;;;;;2.34;51.66;101440.34;6265755;22;20073;-82
2022/03/02 04:58:48;;;;;;;18.92;9.10;;;;;;;2.45;51.69;101437.94;6287147;22;20514;-85
2022/03/02 05:01:16;;;;;;;18.90;9.48;;;;;;;2.28;52.15;101443.31;6289588;22;20056;-83
2022/03/02 05:03:42;;;;;;;20.27;9.55;;;;;;;2.51;51.37;101442.84;6296104;22;20000;-85
2022/03/02 05:06:09;;;;;;;26.13;10.55;;;;;;;2.36;52.02;101441.09;6289548;22;20008;-87
2022/03/02 05:08:37;;;;;;;33.42;11.30;;;;;;;2.34;52.16;101429.88;6284611;22;20022;-82
2022/03/02 05:11:06;;;;;;;27.77;11.13;;;;;;;2.46;52.39;101434.41;6285103;22;20020;-85
2022/03/02 05:13:36;;;;;;;17.25;9.85;;;;;;;2.14;53.24;101432.78;6284003;22;20091;-84
2022/03/02 05:16:02;;;;;;;22.42;10.88;;;;;;;2.00;53.90;101430.09;6282512;22;20003;-86
2022/03/02 05:18:27;;;;;;;26.67;10.02;;;;;;;2.17;53.68;101424.75;6286013;22;20038;-84
2022/03/02 05:20:53;;;;;;;26.48;11.05;;;;;;;2.13;54.45;101425.84;6281545;22;20004;-83
2022/03/02 05:23:19;;;;;;;20.35;11.15;;;;;;;1.98;54.59;101421.50;6280453;22;20012;-82
2022/03/02 05:25:47;;;;;;;26.98;11.57;;;;;;;2.00;54.60;101419.63;6288010;22;20374;-85
2022/03/02 05:28:12;;;;;;;18.52;10.45;;;;;;;1.91;55.21;101414.94;6293077;22;20015;-83
2022/03/02 05:30:38;;;;;;;23.15;11.80;;;;;;;1.64;56.03;101412.06;6288603;22;20012;-89
2022/03/02 05:33:04;;;;;;;26.05;11.98;;;;;;;1.76;55.97;101403.53;6287206;22;20008;-86
2022/03/02 05:35:47;;;;;;;28.45;11.75;;;;;;;1.79;55.82;101410.38;6295679;22;20016;-84
2022/03/02 05:38:22;;;;;;;25.15;11.32;;;;;;;1.95;55.37;101411.22;6296023;22;19995;-86
2022/03/02 05:40:48;;;;;;;27.02;11.65;;;;;;;2.07;54.59;101406.13;6297549;22;20079;-83
2022/03/02 05:43:14;;;;;;;30.48;12.57;;;;;;;2.12;54.48;101403.28;6293156;22;20020;-87
2022/03/02 05:45:42;;;;;;;25.98;11.88;;;;;;;2.07;54.96;101405.28;6261022;22;20004;-85
2022/03/02 05:48:31;;;;;;;28.63;12.43;;;;;;;2.07;54.91;101410.53;6293264;22;20304;-81
2022/03/02 05:53:25;;;;;;;25.75;13.85;;;;;;;1.65;56.12;101403.28;6277059;22;20003;-86
2022/03/02 05:55:51;;;;;;;27.35;12.93;;;;;;;1.52;56.73;101402.28;6287004;22;20443;-84
2022/03/02 05:58:31;;;;;;;25.65;11.65;;;;;;;1.59;56.97;101401.03;6284973;22;20068;-84
2022/03/02 06:01:02;;;;;;;23.15;12.65;;;;;;;1.87;56.18;101397.72;6290298;22;20000;-87
2022/03/02 06:03:29;;;;;;;30.83;12.40;;;;;;;2.19;55.06;101403.78;6288834;22;20050;-85
2022/03/02 06:05:55;;;;;;;28.63;12.75;;;;;;;2.34;53.66;101408.97;6289208;22;20008;-85
2022/03/02 06:08:24;;;;;;;28.83;13.00;;;;;;;2.54;53.71;101403.41;6288051;22;20012;-85
2022/03/02 06:10:50;;;;;;;28.65;12.02;;;;;;;2.99;52.10;101401.63;6292210;22;20042;-86
2022/03/02 06:13:16;;;;;;;26.50;11.63;;;;;;;3.42;50.96;101403.31;6292908;22;20003;-85
2022/03/02 06:15:44;;;;;;;25.98;11.38;;;;;;;3.98;49.36;101404.13;6303937;22;20042;-85
2022/03/02 06:18:10;;;;;;;28.08;12.25;;;;;;;4.50;48.09;101412.09;6304242;22;20009;-85
2022/03/02 06:20:36;;;;;;;20.98;11.02;;;;;;;5.18;46.81;101410.03;6304201;22;20082;-87
2022/03/02 06:23:03;;;;;;;24.25;12.88;;;;;;;5.60;45.42;101398.31;6303119;22;20007;-85
2022/03/02 06:25:35;;;;;;;30.50;12.40;;;;;;;6.01;44.30;101400.63;6303260;22;20000;-86
2022/03/02 06:28:14;;;;;;;30.23;11.93;;;;;;;6.33;43.74;101395.66;6311381;22;20021;-86
2022/03/02 06:31:07;;;;;;;19.85;11.85;;;;;;;6.29;43.64;101399.47;6329156;22;20046;-91
2022/03/02 06:33:43;;;;;;;28.13;12.35;;;;;;;6.89;42.12;101396.66;6307826;22;20045;-89
2022/03/02 06:36:24;;;;;;;28.52;12.05;;;;;;;7.43;40.85;101389.72;6283443;22;20007;-87
2022/03/02 06:38:53;;;;;;;28.80;13.10;;;;;;;7.30;40.55;101394.28;6336157;22;19992;-89
2022/03/02 06:42:17;;;;;;;28.20;11.20;;;;;;;7.55;39.80;101398.47;6290817;22;20042;-90
2022/03/02 06:44:55;;;;;;;19.77;11.60;;;;;;;7.23;40.69;101393.91;6332406;22;20025;-89
2022/03/02 06:47:45;;;;;;;24.55;12.10;;;;;;;7.14;40.77;101394.66;6332687;22;20047;-90
2022/03/02 06:50:12;;;;;;;27.55;12.15;;;;;;;7.84;39.98;101394.34;6331766;22;20007;-89
2022/03/02 06:52:44;;;;;;;23.08;12.25;;;;;;;8.56;38.82;101397.25;6277716;22;20011;-85
2022/03/02 06:55:18;;;;;;;28.27;12.65;;;;;;;8.69;38.26;101396.09;6304679;22;20015;-90
2022/03/02 06:58:02;;;;;;;29.95;12.35;;;;;;;9.86;36.13;101391.19;6332680;22;20006;-90
2022/03/02 07:00:34;;;;;;;23.38;12.70;;;;;;;8.66;38.29;101399.00;6303848;22;20030;-91
2022/03/02 07:03:38;;;;;;;30.08;12.25;;;;;;;9.05;37.31;101391.31;6308496;22;20007;-89
2022/03/02 07:06:06;;;;;;;;;;;;;;;8.16;39.46;101394.38;6336269;22;19999;-90
2022/03/02 07:08:38;;;;;;;27.88;12.70;;;;;;;7.00;41.17;101391.38;6278992;22;19921;-89
2022/03/02 07:11:08;;;;;;;26.02;12.20;;;;;;;7.02;41.90;101389.50;6256345;22;20014;-88
2022/03/02 07:13:34;;;;;;;21.23;12.20;;;;;;;6.74;42.79;101394.22;6306448;22;19995;-88
2022/03/02 07:16:01;;;;;;;19.92;11.35;;;;;;;7.32;42.07;101399.44;6334916;22;20011;-88
2022/03/02 07:18:27;;;;;;;26.30;12.23;;;;;;;7.50;41.09;101387.44;6306248;22;19999;-89
2022/03/02 07:20:57;;;;;;;25.20;11.52;;;;;;;7.54;41.10;101396.78;6331889;22;20120;-89
2022/03/02 07:23:34;;;;;;;23.92;11.73;;;;;;;7.88;41.52;101394.94;6278557;22;20063;-89
2022/03/02 07:26:08;;;;;;;23.45;11.80;;;;;;;8.64;39.73;101400.94;6332746;22;20019;-90
2022/03/02 07:28:44;;;;;;;16.77;9.37;;;;;;;8.65;39.30;101402.59;6332788;22;20026;-90
2022/03/02 07:31:18;;;;;;;18.58;12.13;;;;;;;8.88;38.80;101408.63;6308225;22;20018;-89
2022/03/02 07:33:47;;;;;;;21.67;12.15;;;;;;;9.00;38.63;101396.16;6305751;22;20018;-91
2022/03/02 07:36:21;;;;;;;24.70;12.40;;;;;;;10.32;36.96;101402.03;6281160;22;20015;-93
2022/03/02 07:38:51;;;;;;;25.58;12.40;;;;;;;11.19;35.65;101404.56;6307889;22;20026;-90
2022/03/02 07:41:38;;;;;;;24.85;12.80;;;;;;;11.83;34.40;101408.06;6333318;22;20019;-89
2022/03/02 07:44:11;;;;;;;27.13;12.30;;;;;;;12.25;33.19;101407.53;6306494;22;20011;-91
2022/03/02 07:46:45;;;;;;;27.45;12.45;;;;;;;11.16;36.52;101405.69;6286660;22;20066;-88
2022/03/02 07:49:11;;;;;;;27.38;13.75;;;;;;;10.48;37.38;101404.13;6283167;22;19999;-91
2022/03/02 07:51:43;;;;;;;22.67;11.68;;;;;;;10.80;37.04;101407.28;6282016;22;20039;-91
2022/03/02 07:54:10;;;;;;;;;;;;;;;10.22;37.57;101405.63;6334019;22;19995;-91
2022/03/02 07:56:52;;;;;;;23.15;13.23;;;;;;;9.88;38.59;101404.31;6280895;22;19910;-89
2022/03/02 08:00:23;;;;;;;28.48;11.98;;;;;;;11.08;37.47;101407.38;6333029;22;20031;-89
2022/03/02 08:03:05;;;;;;;23.33;12.88;;;;;;;11.93;34.37;101404.53;6287178;22;20020;-88
2022/03/02 08:06:12;;;;;;;23.02;11.32;;;;;;;11.43;34.99;101404.91;6287561;22;20470;-85
2022/03/02 08:08:41;;;;;;;25.40;12.57;;;;;;;11.20;35.25;101407.06;6271398;22;20458;-86
2022/03/02 08:11:07;;;;;;;22.88;11.93;;;;;;;10.71;36.29;101409.94;6278152;22;20483;-86
2022/03/02 08:13:35;;;;;;;25.35;11.68;;;;;;;11.39;35.36;101396.41;6277463;22;20012;-85
2022/03/02 08:16:01;;;;;;;26.58;12.38;;;;;;;12.32;34.50;101400.63;6286360;22;20068;-85
2022/03/02 08:18:28;;;;;;;25.98;12.65;;;;;;;13.14;32.89;101400.28;6284253;22;20524;-87
2022/03/02 08:20:59;;;;;;;21.08;11.68;;;;;;;13.36;32.35;101397.06;6315496;22;20008;-85
2022/03/02 08:23:29;;;;;;;25.83;11.88;;;;;;;14.18;31.07;101391.06;6305864;22;20021;-84
2022/03/02 08:25:55;;;;;;;25.70;12.40;;;;;;;13.55;31.56;101396.84;6311530;22;20011;-85
2022/03/02 08:28:22;;;;;;;28.80;12.98;;;;;;;13.38;32.28;101389.78;6285407;22;20453;-88
2022/03/02 08:30:52;;;;;;;27.67;12.75;;;;;;;13.54;31.84;101394.34;6328301;22;20034;-87
2022/03/02 08:33:27;;;;;;;33.33;13.95;;;;;;;13.45;33.20;101374.84;6310537;22;20013;-87
2022/03/02 08:35:54;;;;;;;36.58;14.57;;;;;;;13.56;32.11;101374.53;6310703;22;20018;-87
2022/03/02 08:38:21;;;;;;;29.40;14.93;;;;;;;13.89;31.83;101381.63;6311341;22;20003;-89
2022/03/02 08:40:51;;;;;;;31.02;14.10;;;;;;;14.77;31.04;101381.94;6315543;22;20015;-87
2022/03/02 08:43:17;;;;;;;30.25;13.63;;;;;;;15.15;29.36;101383.00;6315719;22;20011;-86
2022/03/02 08:45:47;;;;;;;29.13;12.57;;;;;;;13.52;31.64;101380.38;6316017;22;20014;-88
2022/03/02 08:48:18;;;;;;;27.65;12.40;;;;;;;13.86;31.88;101381.97;6315758;22;20068;-85
2022/03/02 08:50:45;;;;;;;27.27;12.75;;;;;;;13.91;31.73;101369.00;6261154;22;20050;-86
2022/03/02 08:53:16;;;;;;;37.50;15.35;;;;;;;13.92;31.58;101377.81;6317109;22;20018;-87
2022/03/02 08:55:43;;;;;;;34.60;14.98;;;;;;;13.47;32.85;101364.84;6311604;22;20011;-86
2022/03/02 08:58:10;;;;;;;38.53;16.80;;;;;;;14.17;31.57;101370.72;6313301;22;20450;-85
2022/03/02 09:00:37;;;;;;;45.08;18.90;;;;;;;14.17;31.73;101363.56;6312279;22;20386;-84
2022/03/02 09:03:04;;;;;;;46.67;19.50;;;;;;;14.43;31.56;101360.75;6314406;22;20054;-89
2022/03/02 09:05:33;;;;;;;45.30;18.83;;;;;;;14.62;31.58;101359.56;6286475;22;20019;-84
2022/03/02 09:07:59;;;;;;;48.78;17.65;;;;;;;14.63;31.05;101362.09;6259430;22;20071;-86
2022/03/02 09:10:25;;;;;;;44.13;16.75;;;;;;;13.78;31.67;101365.13;6311300;22;20042;-85
2022/03/02 09:12:50;;;;;;;32.65;16.23;;;;;;;13.04;33.10;101359.59;6312218;22;20010;-85
2022/03/02 09:15:17;;;;;;;28.65;15.05;;;;;;;14.06;31.52;101357.69;6263997;22;20011;-84
2022/03/02 09:17:42;;;;;;;33.53;15.90;;;;;;;14.15;31.99;101352.19;6260239;22;20480;-84
2022/03/02 09:20:11;;;;;;;32.70;16.02;;;;;;;14.24;32.22;101355.72;6313384;22;20019;-92
2022/03/02 09:22:39;;;;;;;36.17;15.70;;;;;;;14.45;31.86;101350.75;6315549;22;20018;-88
2022/03/02 09:25:09;;;;;;;34.03;15.38;;;;;;;13.69;33.00;101350.09;6316402;22;20084;-91
2022/03/02 09:27:35;;;;;;;27.75;13.43;;;;;;;13.28;34.09;101335.81;6288765;22;20007;-89
2022/03/02 09:30:06;;;;;;;25.05;14.38;;;;;;;13.24;33.85;101345.94;6263216;22;20644;-90
2022/03/02 09:32:34;;;;;;;31.63;13.32;;;;;;;13.54;32.91;101344.56;6319185;22;20007;-88
2022/03/02 09:35:00;;;;;;;26.38;13.07;;;;;;;13.26;33.57;101335.13;6291290;22;20059;-87
2022/03/02 09:37:35;;;;;;;24.50;13.57;;;;;;;12.72;34.90;101333.66;6296746;22;20011;-92
2022/03/02 09:40:02;;;;;;;26.97;13.83;;;;;;;12.03;36.21;101330.94;6322103;22;20018;-91
2022/03/02 09:42:39;;;;;;;31.48;13.73;;;;;;;12.07;35.37;101330.44;6293817;22;20295;-86
2022/03/02 09:45:07;;;;;;;25.25;12.40;;;;;;;11.78;35.16;101327.19;6325516;22;20015;-89
2022/03/02 09:47:44;;;;;;;21.77;12.07;;;;;;;12.12;34.68;101324.69;6328081;22;20413;-89
2022/03/02 09:50:17;;;;;;;26.15;13.18;;;;;;;12.15;34.76;101313.75;6294085;22;20011;-93
2022/03/02 09:52:52;;;;;;;21.67;12.65;;;;;;;11.49;34.37;101314.06;6316925;22;20778;-88
2022/03/02 09:55:25;;;;;;;29.88;12.77;;;;;;;11.66;34.17;101307.94;6321417;22;20442;-93
2022/03/02 09:57:55;;;;;;;23.15;13.48;;;;;;;11.21;34.42;101305.25;6303629;22;19995;-91
2022/03/02 10:00:23;;;;;;;31.10;14.07;;;;;;;10.98;35.28;101297.81;6306856;22;20018;-89
2022/03/02 10:02:55;;;;;;;28.50;13.25;;;;;;;11.22;35.60;101295.47;6333380;22;20017;-86
2022/03/02 10:05:27;;;;;;;27.40;14.13;;;;;;;11.42;34.78;101283.78;6306082;22;20067;-89
2022/03/02 10:08:00;;;;;;;29.37;13.57;;;;;;;12.93;32.09;101284.38;6331154;22;20002;-88
2022/03/02 10:10:28;;;;;;;22.73;13.57;;;;;;;13.42;31.55;101284.63;6329559;22;20241;-86
2022/03/02 10:13:09;;;;;;;28.60;14.18;;;;;;;14.30;30.46;101285.72;6276098;22;20099;-87
2022/03/02 10:15:36;;;;;;;26.58;13.88;;;;;;;14.86;29.60;101282.16;6317394;22;20008;-87
2022/03/02 10:18:05;;;;;;;32.63;13.60;;;;;;;16.35;27.07;101293.34;6314544;22;20003;-87
2022/03/02 10:20:35;;;;;;;23.20;12.70;;;;;;;17.62;25.45;101281.56;6271562;22;20018;-91
2022/03/02 10:23:24;;;;;;;24.60;13.10;;;;;;;17.50;25.01;101286.53;6288378;22;20015;-90
2022/03/02 10:26:08;;;;;;;20.98;12.98;;;;;;;17.23;25.05;101279.22;6314101;22;20007;-90
2022/03/02 10:28:39;;;;;;;21.98;12.07;;;;;;;17.49;24.71;101283.06;6289177;22;20011;-90
2022/03/02 10:31:27;;;;;;;31.33;12.70;;;;;;;17.78;24.30;101284.00;6288187;22;20023;-88
2022/03/02 10:33:55;;;;;;;22.63;12.55;;;;;;;17.70;24.60;101278.78;6315270;22;20055;-87
2022/03/02 10:36:24;;;;;;;19.90;12.05;;;;;;;18.47;23.74;101277.00;6316668;22;20006;-87
2022/03/02 10:39:02;;;;;;;21.92;12.10;;;;;;;18.91;23.01;101268.66;6300604;22;20007;-84
2022/03/02 10:41:31;;;;;;;23.45;12.48;;;;;;;19.14;22.51;101265.66;6308126;22;20027;-85
2022/03/02 10:44:04;;;;;;;24.48;13.20;;;;;;;19.85;22.00;101273.16;6306934;22;20067;-84
2022/03/02 10:46:30;;;;;;;22.30;13.02;;;;;;;19.07;22.09;101263.78;6334909;22;19988;-86
2022/03/02 10:49:03;;;;;;;23.67;12.73;;;;;;;18.87;22.55;101257.47;6306306;22;20030;-87
2022/03/02 10:51:32;;;;;;;18.77;12.52;;;;;;;18.68;21.96;101260.88;6334554;22;20021;-84
2022/03/02 10:54:01;;;;;;;20.13;12.43;;;;;;;17.83;23.22;101258.28;6336096;22;20034;-84
2022/03/02 10:56:28;;;;;;;29.38;15.75;;;;;;;17.48;23.33;101259.09;6335968;22;20021;-86
2022/03/02 10:58:54;;;;;;;22.13;14.10;;;;;;;16.74;24.23;101250.31;6309696;22;19991;-85
2022/03/02 11:01:22;;;;;;;21.85;12.68;;;;;;;15.83;25.20;101253.16;6335766;22;20003;-84
2022/03/02 11:03:48;;;;;;;21.50;12.73;;;;;;;15.59;25.36;101244.47;6308665;22;20042;-83
2022/03/02 11:06:14;;;;;;;24.63;12.38;;;;;;;15.73;25.83;101238.38;6335173;22;20003;-86
2022/03/02 11:08:42;;;;;;;21.80;13.52;;;;;;;15.45;25.54;101243.34;6335212;22;20051;-86
2022/03/02 11:11:09;;;;;;;30.10;17.58;;;;;;;15.08;25.92;101230.69;6335283;22;20015;-82
2022/03/02 11:13:36;;;;;;;36.67;18.27;;;;;;;14.54;26.69;101227.06;6334521;22;19991;-85
2022/03/02 11:16:03;;;;;;;24.88;13.73;;;;;;;14.14;26.26;101208.44;6332636;22;20008;-83
2022/03/02 11:18:38;;;;;;;25.73;14.55;;;;;;;13.32;27.91;101206.72;6327599;22;20059;-87
2022/03/02 11:21:10;;;;;;;32.03;16.52;;;;;;;13.17;28.56;101195.03;6291177;22;20067;-84
2022/03/02 11:23:42;;;;;;;25.33;14.88;;;;;;;13.51;27.98;101195.78;6295788;22;20059;-85
2022/03/02 11:26:11;;;;;;;24.90;14.93;;;;;;;13.32;28.28;101182.75;6291824;22;20007;-81
2022/03/02 11:28:45;;;;;;;24.95;14.55;;;;;;;13.33;28.26;101176.41;6313461;22;20493;-83
2022/03/02 11:31:13;;;;;;;30.45;17.45;;;;;;;13.75;28.52;101163.00;6310944;22;20007;-84
2022/03/02 11:33:43;;;;;;;25.48;13.98;;;;;;;13.17;28.17;101163.09;6283293;22;20130;-82
2022/03/02 11:36:08;;;;;;;20.75;13.57;;;;;;;13.42;27.96;101162.16;6307754;22;20026;-82
2022/03/02 11:38:34;;;;;;;28.45;14.40;;;;;;;13.31;28.16;101159.78;6310543;22;20038;-82
2022/03/02 11:41:01;;;;;;;23.20;13.98;;;;;;;13.35;28.56;101153.16;6284961;22;20338;-86
2022/03/02 11:43:29;;;;;;;27.80;14.75;;;;;;;13.54;28.97;101155.50;6283629;22;20007;-85
2022/03/02 11:46:00;;;;;;;23.65;15.00;;;;;;;13.43;28.82;101142.50;6284368;22;20354;-82
2022/03/02 11:48:28;;;;;;;24.13;14.65;;;;;;;13.54;28.67;101144.00;6313494;22;20011;-84
2022/03/02 11:51:12;;;;;;;23.35;13.65;;;;;;;14.66;27.15;101132.31;6263457;22;20015;-82
2022/03/02 11:53:45;;;;;;;29.83;15.45;;;;;;;14.14;27.65;101123.13;6315268;22;20015;-83
2022/03/02 11:56:16;;;;;;;29.00;14.77;;;;;;;14.71;26.91;101127.28;6310146;22;20373;-85
2022/03/02 11:59:15;;;;;;;25.43;14.40;;;;;;;14.49;26.82;101120.03;6315490;22;20007;-83
2022/03/02 12:01:46;;;;;;;32.58;16.02;;;;;;;14.87;26.81;101118.38;6218320;23;20015;-83
2022/03/02 12:04:14;;;;;;;24.55;15.15;;;;;;;14.99;26.74;101117.78;6192576;23;20019;-82
2022/03/02 12:06:52;;;;;;;21.73;14.18;;;;;;;14.36;27.55;101109.09;6222220;23;20024;-81
2022/03/02 12:09:25;;;;;;;24.85;14.30;;;;;;;13.91;27.93;101107.84;6215966;23;20016;-84